Time;durP1;ratioP1;P1;durP2;ratioP2;P2;SDS_P1;SDS_P2;PMS_P1;PMS_P2;Temp;Humidity;BMP_temperature;BMP_pressure;BME280_temperature;BME280_humidity;BME280_pressure;Samples;Min_cycle;Max_cycle;Signal;HPM_P1;HPM_P2
2021/06/17 00:02:15;;;;;;;1.30;1.00;;;23.40;99.90;;;;;;5049794;28;20221;-73
2021/06/17 00:04:41;;;;;;;1.50;1.40;;;23.40;99.90;;;;;;5053687;28;20524;-73
2021/06/17 00:07:07;;;;;;;1.53;1.03;;;23.30;99.90;;;;;;5050657;28;20292;-73
2021/06/17 00:09:32;;;;;;;1.30;1.20;;;23.30;99.90;;;;;;5052033;28;20241;-73
2021/06/17 00:12:01;;;;;;;1.60;1.50;;;23.20;99.90;;;;;;5048050;28;20209;-73
2021/06/17 00:14:32;;;;;;;2.70;1.30;;;23.20;99.90;;;;;;5043425;28;20593;-74
2021/06/17 00:16:59;;;;;;;1.43;0.80;;;23.20;99.90;;;;;;5050409;28;20463;-73
2021/06/17 00:19:26;;;;;;;1.40;1.17;;;23.20;99.90;;;;;;5052050;28;20436;-73
2021/06/17 00:21:53;;;;;;;2.20;1.47;;;23.10;99.90;;;;;;5051021;28;20446;-73
2021/06/17 00:24:19;;;;;;;1.83;1.70;;;23.10;99.90;;;;;;5051197;28;20437;-73
2021/06/17 00:26:47;;;;;;;2.07;1.20;;;23.10;99.90;;;;;;5050006;28;20544;-73
2021/06/17 00:29:13;;;;;;;6.17;1.27;;;23.10;99.90;;;;;;5053212;28;20505;-73
2021/06/17 00:31:39;;;;;;;1.80;1.30;;;23.00;99.90;;;;;;5051853;28;20547;-73
2021/06/17 00:34:08;;;;;;;1.00;0.83;;;23.00;99.90;;;;;;5045325;28;20221;-73
2021/06/17 00:36:35;;;;;;;2.00;1.80;;;22.90;99.90;;;;;;5051050;28;20456;-73
2021/06/17 00:39:01;;;;;;;3.10;1.33;;;22.80;99.90;;;;;;5051448;28;20425;-73
2021/06/17 00:41:26;;;;;;;3.53;1.50;;;22.80;99.90;;;;;;5050686;28;20785;-73
2021/06/17 00:43:52;;;;;;;1.10;0.97;;;22.70;99.90;;;;;;5046560;28;20842;-74
2021/06/17 00:46:17;;;;;;;2.13;1.40;;;22.70;99.90;;;;;;5049245;28;20234;-73
2021/06/17 00:48:43;;;;;;;1.30;1.20;;;22.70;99.90;;;;;;5052662;28;20257;-74
2021/06/17 00:51:09;;;;;;;3.23;2.33;;;22.70;99.90;;;;;;5050951;28;20226;-73
2021/06/17 00:53:34;;;;;;;1.37;1.27;;;22.60;99.90;;;;;;5049739;28;20187;-73
2021/06/17 00:56:01;;;;;;;1.23;1.13;;;22.70;99.90;;;;;;5047531;28;20233;-73
2021/06/17 00:58:27;;;;;;;1.07;0.97;;;22.70;99.90;;;;;;5050772;28;20581;-73
2021/06/17 01:00:54;;;;;;;1.10;1.00;;;22.70;99.90;;;;;;5051815;28;20431;-73
2021/06/17 01:03:21;;;;;;;1.50;1.40;;;22.60;99.90;;;;;;5049828;28;20828;-73
2021/06/17 01:05:46;;;;;;;1.50;1.40;;;22.60;99.90;;;;;;5050858;28;20429;-73
2021/06/17 01:08:19;;;;;;;1.37;1.27;;;22.60;99.90;;;;;;5048799;28;20453;-73
2021/06/17 01:11:00;;;;;;;1.30;1.20;;;22.60;99.90;;;;;;5048800;28;20199;-73
2021/06/17 01:13:56;;;;;;;1.67;1.57;;;22.60;99.90;;;;;;5049679;28;20791;-73
2021/06/17 01:16:44;;;;;;;2.40;2.20;;;22.60;99.90;;;;;;5045732;28;20460;-74
2021/06/17 01:19:29;;;;;;;1.63;1.37;;;22.50;99.90;;;;;;5052250;28;20484;-73
2021/06/17 01:22:15;;;;;;;1.87;1.73;;;22.40;99.90;;;;;;5037875;28;21016;-73
2021/06/17 01:25:03;;;;;;;1.30;1.20;;;22.40;99.90;;;;;;5031933;28;20405;-73
2021/06/17 01:27:36;;;;;;;1.10;1.00;;;22.40;99.90;;;;;;5049410;28;20456;-73
2021/06/17 01:30:13;;;;;;;1.13;1.00;;;22.40;99.90;;;;;;5050553;28;20413;-74
2021/06/17 01:32:44;;;;;;;1.13;0.90;;;22.40;99.90;;;;;;5050322;28;20774;-73
2021/06/17 01:35:12;;;;;;;1.57;1.20;;;22.30;99.90;;;;;;5049385;28;20790;-73
2021/06/17 01:37:39;;;;;;;1.37;1.07;;;22.30;99.90;;;;;;5050600;28;20426;-74
2021/06/17 01:40:08;;;;;;;3.80;2.03;;;22.30;99.90;;;;;;5047327;28;20926;-73
2021/06/17 01:42:37;;;;;;;2.90;2.80;;;22.30;99.90;;;;;;5050761;28;20441;-74
2021/06/17 01:45:03;;;;;;;0.90;0.80;;;22.30;99.90;;;;;;5049850;28;20512;-73
2021/06/17 01:47:30;;;;;;;1.37;1.27;;;22.30;99.90;;;;;;5048562;28;20522;-74
2021/06/17 01:49:57;;;;;;;2.03;1.90;;;22.30;99.90;;;;;;5034695;28;20433;-74
2021/06/17 01:52:24;;;;;;;2.50;1.43;;;22.30;99.90;;;;;;5042821;28;20923;-74
2021/06/17 01:54:51;;;;;;;1.30;1.20;;;22.20;99.90;;;;;;5047880;28;20437;-74
2021/06/17 01:57:19;;;;;;;2.00;1.50;;;22.10;99.90;;;;;;5036506;28;20473;-74
2021/06/17 01:59:48;;;;;;;2.10;1.90;;;22.20;99.90;;;;;;5047140;28;20429;-73
2021/06/17 02:02:16;;;;;;;2.80;2.50;;;22.20;99.90;;;;;;5047990;28;20434;-74
2021/06/17 02:04:46;;;;;;;2.07;1.20;;;22.20;99.90;;;;;;5048109;28;20433;-74
2021/06/17 02:07:13;;;;;;;1.70;1.60;;;22.20;99.90;;;;;;5050965;28;20500;-74
2021/06/17 02:09:39;;;;;;;2.03;1.00;;;22.20;99.90;;;;;;5050279;28;20441;-74
2021/06/17 02:12:06;;;;;;;1.20;1.10;;;22.10;99.90;;;;;;5050863;28;20518;-74
2021/06/17 02:14:33;;;;;;;1.50;1.40;;;22.10;99.90;;;;;;5048728;28;20964;-74
2021/06/17 02:17:01;;;;;;;1.60;1.27;;;22.00;99.90;;;;;;5049982;28;20506;-74
2021/06/17 02:19:29;;;;;;;2.77;1.17;;;22.00;99.90;;;;;;5044417;28;20510;-74
2021/06/17 02:21:59;;;;;;;0.97;0.87;;;21.90;99.90;;;;;;5043192;28;20969;-74
2021/06/17 02:24:26;;;;;;;1.97;1.87;;;21.90;99.90;;;;;;5042214;28;20429;-74
2021/06/17 02:26:57;;;;;;;1.73;1.63;;;21.90;99.90;;;;;;5038912;28;20488;-74
2021/06/17 02:29:23;;;;;;;1.40;1.30;;;21.90;99.90;;;;;;5042575;28;21280;-74
2021/06/17 02:31:50;;;;;;;1.47;1.37;;;21.80;99.90;;;;;;5041515;28;20481;-74
2021/06/17 02:34:16;;;;;;;3.10;1.37;;;21.80;99.90;;;;;;5041686;28;20171;-74
2021/06/17 02:36:44;;;;;;;1.10;1.00;;;21.80;99.90;;;;;;5048576;28;20536;-74
2021/06/17 02:39:13;;;;;;;2.50;2.40;;;21.80;99.90;;;;;;5050078;28;20425;-74
2021/06/17 02:41:44;;;;;;;1.87;1.57;;;21.70;99.90;;;;;;5045709;28;20463;-74
2021/06/17 02:44:11;;;;;;;1.50;1.40;;;21.70;99.90;;;;;;5045457;28;20425;-74
2021/06/17 02:46:36;;;;;;;1.40;1.17;;;21.70;99.90;;;;;;5046266;28;20842;-74
2021/06/17 02:49:06;;;;;;;1.50;1.30;;;21.60;99.90;;;;;;5046056;28;20437;-74
2021/06/17 02:51:32;;;;;;;1.87;1.77;;;21.60;99.90;;;;;;5045095;28;20207;-74
2021/06/17 02:53:57;;;;;;;1.30;1.20;;;21.60;99.90;;;;;;5045684;28;20435;-74
2021/06/17 02:56:49;;;;;;;2.13;1.77;;;21.60;99.90;;;;;;5045721;28;20191;-74
2021/06/17 02:59:33;;;;;;;1.80;1.70;;;21.60;99.90;;;;;;5045575;28;20171;-74
2021/06/17 03:02:06;;;;;;;1.23;1.10;;;21.60;99.90;;;;;;5047711;28;20437;-74
2021/06/17 03:04:41;;;;;;;1.17;1.00;;;21.60;99.90;;;;;;5046307;28;20421;-74
2021/06/17 03:07:11;;;;;;;1.47;1.37;;;21.60;99.90;;;;;;5044764;28;20454;-74
2021/06/17 03:10:01;;;;;;;2.40;1.63;;;21.60;99.90;;;;;;5043594;28;20437;-74
2021/06/17 03:12:28;;;;;;;2.57;1.67;;;21.50;99.90;;;;;;5045755;28;20445;-74
2021/06/17 03:14:56;;;;;;;1.27;1.17;;;21.50;99.90;;;;;;5044708;28;20433;-74
2021/06/17 03:17:23;;;;;;;1.20;1.10;;;21.50;99.90;;;;;;5046258;28;20456;-74
2021/06/17 03:19:53;;;;;;;2.13;1.47;;;21.50;99.90;;;;;;5044856;28;20507;-74
2021/06/17 03:22:24;;;;;;;2.20;1.53;;;21.40;99.90;;;;;;5045203;28;20420;-74
2021/06/17 03:24:54;;;;;;;1.97;1.77;;;21.40;99.90;;;;;;5046074;28;20674;-74
2021/06/17 03:27:20;;;;;;;2.30;1.50;;;21.40;99.90;;;;;;5044798;28;20461;-74
2021/06/17 03:29:49;;;;;;;2.40;1.10;;;21.30;99.90;;;;;;5045793;28;20433;-74
2021/06/17 03:32:16;;;;;;;1.27;1.17;;;21.30;99.90;;;;;;5051511;28;20492;-74
2021/06/17 03:34:45;;;;;;;1.83;1.70;;;21.30;99.90;;;;;;5044815;28;21032;-74
2021/06/17 03:37:13;;;;;;;3.60;1.40;;;21.30;99.90;;;;;;5042950;28;20459;-74
2021/06/17 03:39:40;;;;;;;2.13;1.93;;;21.30;99.90;;;;;;5045001;28;20444;-74
2021/06/17 03:42:09;;;;;;;0.90;0.80;;;21.30;99.90;;;;;;5051144;28;20964;-74
2021/06/17 03:44:36;;;;;;;1.87;1.67;;;21.30;99.90;;;;;;5047264;28;20450;-74
2021/06/17 03:47:03;;;;;;;4.40;3.57;;;21.30;99.90;;;;;;5047330;28;20534;-74
2021/06/17 03:49:30;;;;;;;4.07;2.63;;;21.30;99.90;;;;;;5044443;28;20954;-74
2021/06/17 03:51:57;;;;;;;1.50;1.20;;;21.30;99.90;;;;;;5038718;28;20553;-74
2021/06/17 03:54:26;;;;;;;2.20;2.00;;;21.40;99.90;;;;;;5045517;28;20491;-75
2021/06/17 03:57:03;;;;;;;1.33;1.23;;;21.40;99.90;;;;;;5046105;28;20543;-74
2021/06/17 03:59:36;;;;;;;3.60;2.40;;;21.30;99.90;;;;;;5045303;28;20430;-74
2021/06/17 04:02:03;;;;;;;2.93;2.20;;;21.30;99.90;;;;;;5045254;28;20444;-74
2021/06/17 04:04:30;;;;;;;1.63;1.53;;;21.40;99.90;;;;;;5050239;28;20809;-74
2021/06/17 04:06:59;;;;;;;1.50;1.40;;;21.30;99.90;;;;;;5050662;28;20460;-74
2021/06/17 04:09:29;;;;;;;2.93;1.63;;;21.30;99.90;;;;;;5043991;28;20428;-74
2021/06/17 04:11:57;;;;;;;2.20;1.30;;;21.30;99.90;;;;;;5043272;28;20981;-74
2021/06/17 04:14:24;;;;;;;2.10;1.90;;;21.30;99.90;;;;;;5047729;28;20483;-74
2021/06/17 04:16:52;;;;;;;1.17;1.07;;;21.30;99.90;;;;;;5043723;28;20441;-74
2021/06/17 04:19:25;;;;;;;1.37;1.27;;;21.40;99.90;;;;;;5046016;28;20827;-74
2021/06/17 04:21:54;;;;;;;1.47;1.37;;;21.40;99.90;;;;;;5046784;28;20934;-73
2021/06/17 04:24:23;;;;;;;5.13;1.43;;;21.50;99.90;;;;;;5055578;28;20456;-74
2021/06/17 04:26:51;;;;;;;2.17;2.00;;;21.50;99.90;;;;;;5045592;28;20526;-74
2021/06/17 04:29:18;;;;;;;1.37;1.20;;;21.60;99.90;;;;;;5048730;28;20436;-74
2021/06/17 04:31:45;;;;;;;3.47;2.40;;;21.60;99.90;;;;;;5045137;28;20453;-74
2021/06/17 04:34:11;;;;;;;1.60;1.50;;;21.60;99.90;;;;;;5045641;28;20772;-74
2021/06/17 04:36:38;;;;;;;1.30;1.20;;;21.60;99.90;;;;;;5045200;28;20441;-74
2021/06/17 04:39:04;;;;;;;1.47;0.97;;;21.70;99.90;;;;;;5043876;28;20421;-74
2021/06/17 04:41:30;;;;;;;2.70;2.50;;;21.70;99.90;;;;;;5044060;28;20967;-74
2021/06/17 04:43:56;;;;;;;1.87;1.77;;;21.70;99.90;;;;;;5044686;28;20440;-74
2021/06/17 04:46:23;;;;;;;1.30;1.20;;;21.80;99.90;;;;;;5046557;28;20194;-74
2021/06/17 04:48:51;;;;;;;1.47;1.20;;;21.80;99.90;;;;;;5048049;28;20199;-74
2021/06/17 04:51:17;;;;;;;2.63;2.40;;;21.80;99.90;;;;;;5042772;28;20955;-73
2021/06/17 04:53:43;;;;;;;4.60;2.27;;;21.80;99.90;;;;;;5036761;28;20457;-73
2021/06/17 04:56:08;;;;;;;0.97;0.87;;;21.90;99.90;;;;;;5043600;28;20429;-73
2021/06/17 04:58:36;;;;;;;1.70;1.60;;;22.00;99.90;;;;;;5041535;28;20178;-73
2021/06/17 05:01:05;;;;;;;1.07;0.80;;;22.00;99.90;;;;;;5044444;28;20206;-74
2021/06/17 05:03:31;;;;;;;3.83;1.70;;;22.10;99.90;;;;;;5046157;28;20437;-74
2021/06/17 05:05:59;;;;;;;2.63;2.43;;;22.20;99.90;;;;;;5046853;28;20445;-76
2021/06/17 05:10:53;;;;;;;1.80;1.70;;;22.30;99.90;;;;;;5053529;28;20491;-76
2021/06/17 05:13:42;;;;;;;3.83;2.00;;;22.40;99.90;;;;;;5044954;28;20229;-74
2021/06/17 05:16:08;;;;;;;1.90;1.33;;;22.40;99.90;;;;;;5045377;28;20499;-73
2021/06/17 05:18:34;;;;;;;1.10;1.00;;;22.50;99.90;;;;;;5042917;28;20437;-73
2021/06/17 05:20:59;;;;;;;1.50;1.40;;;22.60;99.90;;;;;;5043676;28;20867;-72
2021/06/17 05:23:26;;;;;;;2.37;1.70;;;22.70;99.90;;;;;;5043842;28;20660;-73
2021/06/17 05:25:54;;;;;;;1.30;1.20;;;22.80;99.90;;;;;;5048437;28;20210;-73
2021/06/17 05:28:22;;;;;;;2.63;2.43;;;22.90;99.90;;;;;;5038657;28;20498;-73
2021/06/17 05:30:49;;;;;;;1.53;1.43;;;23.10;99.90;;;;;;5051856;28;21172;-73
2021/06/17 05:33:15;;;;;;;1.47;1.30;;;23.20;99.90;;;;;;5051996;28;20434;-73
2021/06/17 05:35:41;;;;;;;2.77;2.57;;;23.30;99.90;;;;;;5052682;28;20488;-73
2021/06/17 05:38:07;;;;;;;3.00;1.63;;;23.40;99.90;;;;;;5050819;28;20545;-74
2021/06/17 05:40:33;;;;;;;1.40;1.30;;;23.60;99.90;;;;;;5052489;28;20167;-73
2021/06/17 05:42:59;;;;;;;2.73;2.53;;;23.70;99.90;;;;;;5048586;28;20445;-73
2021/06/17 05:45:24;;;;;;;3.10;1.93;;;23.90;99.90;;;;;;5051787;28;20834;-73
2021/06/17 05:47:50;;;;;;;1.67;1.57;;;24.10;99.90;;;;;;5052599;28;20198;-74
2021/06/17 05:50:16;;;;;;;2.93;1.87;;;24.20;99.90;;;;;;5067367;28;20194;-72
2021/06/17 05:52:41;;;;;;;1.57;1.47;;;24.40;99.90;;;;;;5057302;28;20509;-73
2021/06/17 05:55:08;;;;;;;4.50;1.80;;;24.60;99.90;;;;;;5051553;28;20163;-73
2021/06/17 05:57:36;;;;;;;2.50;1.80;;;24.70;99.90;;;;;;5050571;28;20663;-74
2021/06/17 06:00:04;;;;;;;3.20;1.27;;;24.80;99.90;;;;;;5051262;28;20413;-73
2021/06/17 06:02:29;;;;;;;2.10;1.47;;;24.80;99.90;;;;;;5051767;28;20435;-73
2021/06/17 06:04:55;;;;;;;1.10;1.00;;;24.80;99.90;;;;;;5049817;28;20440;-73
2021/06/17 06:07:21;;;;;;;1.57;1.47;;;24.80;99.90;;;;;;5083801;28;20201;-73
2021/06/17 06:09:46;;;;;;;1.60;1.23;;;24.80;99.90;;;;;;5053811;28;20175;-73
2021/06/17 06:12:13;;;;;;;1.47;1.37;;;24.70;99.90;;;;;;5056299;28;20690;-73
2021/06/17 06:14:39;;;;;;;1.77;1.63;;;24.70;99.90;;;;;;5057144;28;20198;-73
2021/06/17 06:17:05;;;;;;;2.03;1.67;;;24.70;99.90;;;;;;5057133;28;20459;-73
2021/06/17 06:19:32;;;;;;;1.50;1.40;;;25.00;99.90;;;;;;5057442;28;20167;-73
2021/06/17 06:21:58;;;;;;;1.83;1.50;;;25.10;99.90;;;;;;5056534;28;20475;-73
2021/06/17 06:24:23;;;;;;;1.23;1.13;;;25.30;99.90;;;;;;5055242;28;20429;-74
2021/06/17 06:26:49;;;;;;;1.93;1.80;;;25.50;99.90;;;;;;5054618;28;20196;-72
2021/06/17 06:29:15;;;;;;;1.57;1.47;;;25.60;99.90;;;;;;5055636;28;20178;-73
2021/06/17 06:31:41;;;;;;;1.43;1.33;;;25.70;99.90;;;;;;5055756;28;20453;-74
2021/06/17 06:34:06;;;;;;;2.00;1.83;;;25.70;99.90;;;;;;5055039;28;20174;-74
2021/06/17 06:36:32;;;;;;;2.50;1.47;;;25.90;99.90;;;;;;5055765;28;20810;-74
2021/06/17 06:38:57;;;;;;;2.10;1.63;;;26.10;99.90;;;;;;5067045;28;20213;-73
2021/06/17 06:41:23;;;;;;;1.93;1.63;;;26.30;99.90;;;;;;5055543;28;20185;-73
2021/06/17 06:43:48;;;;;;;1.77;1.30;;;26.60;99.90;;;;;;5055569;28;20185;-73
2021/06/17 06:46:15;;;;;;;1.33;1.10;;;26.90;99.90;;;;;;5055625;28;20684;-73
2021/06/17 06:48:40;;;;;;;2.07;1.83;;;27.10;99.90;;;;;;5055098;28;20222;-73
2021/06/17 06:51:06;;;;;;;1.83;1.40;;;27.40;99.90;;;;;;5056370;28;20467;-74
2021/06/17 06:53:32;;;;;;;2.27;2.17;;;27.50;99.90;;;;;;5086622;28;20171;-74
2021/06/17 06:55:57;;;;;;;1.43;1.23;;;27.90;99.90;;;;;;5050844;28;20183;-74
2021/06/17 06:58:23;;;;;;;1.73;1.57;;;28.10;99.90;;;;;;5053588;28;20187;-73
2021/06/17 07:00:48;;;;;;;1.33;1.23;;;28.40;99.90;;;;;;5054517;28;20185;-73
2021/06/17 07:03:14;;;;;;;1.30;1.20;;;28.70;99.90;;;;;;5054784;28;20248;-73
2021/06/17 07:05:40;;;;;;;1.63;1.20;;;28.90;99.90;;;;;;5052781;28;20179;-73
2021/06/17 07:08:10;;;;;;;2.00;1.90;;;28.90;99.90;;;;;;5049428;28;20261;-75
2021/06/17 07:10:37;;;;;;;2.07;1.90;;;29.10;99.90;;;;;;5054919;28;20453;-74
2021/06/17 07:13:03;;;;;;;1.57;1.47;;;29.30;99.90;;;;;;5055698;28;20512;-75
2021/06/17 07:15:28;;;;;;;1.77;1.67;;;29.60;99.90;;;;;;5056551;28;20453;-74
2021/06/17 07:17:54;;;;;;;1.60;1.50;;;29.70;99.90;;;;;;5055286;28;20426;-75
2021/06/17 07:20:19;;;;;;;2.23;2.13;;;29.80;99.90;;;;;;5055592;28;20185;-74
2021/06/17 07:22:45;;;;;;;1.23;1.13;;;30.00;99.90;;;;;;5061656;28;20519;-74
2021/06/17 07:25:11;;;;;;;1.23;1.13;;;30.30;99.90;;;;;;5059637;28;20250;-74
2021/06/17 07:27:36;;;;;;;1.80;1.40;;;30.60;99.90;;;;;;5057687;28;20198;-73
2021/06/17 07:30:03;;;;;;;2.43;1.07;;;30.80;99.90;;;;;;5059813;28;20540;-73
2021/06/17 07:32:29;;;;;;;1.30;1.20;;;30.90;99.90;;;;;;5058031;28;20663;-73
2021/06/17 07:34:56;;;;;;;1.27;1.17;;;31.10;99.90;;;;;;5057640;28;20444;-73
2021/06/17 07:37:22;;;;;;;1.40;1.10;;;31.30;99.90;;;;;;5055126;28;20199;-73
2021/06/17 07:39:47;;;;;;;1.60;1.40;;;31.60;99.90;;;;;;5055615;28;20474;-73
2021/06/17 07:42:13;;;;;;;2.30;2.17;;;31.60;99.90;;;;;;5054634;28;20194;-73
2021/06/17 07:44:38;;;;;;;1.07;0.97;;;31.50;99.90;;;;;;5060195;28;20190;-74
2021/06/17 07:47:05;;;;;;;1.73;1.50;;;31.90;99.90;;;;;;5056076;28;20218;-74
2021/06/17 07:49:31;;;;;;;1.53;1.43;;;32.20;99.90;;;;;;5058908;28;20526;-74
2021/06/17 07:51:57;;;;;;;2.17;1.77;;;32.30;99.90;;;;;;5059109;28;20590;-74
2021/06/17 07:54:22;;;;;;;1.60;1.50;;;32.30;99.90;;;;;;5055859;28;20170;-73
2021/06/17 07:56:48;;;;;;;1.13;1.03;;;32.40;99.90;;;;;;5054489;28;20515;-73
2021/06/17 07:59:18;;;;;;;1.80;1.40;;;32.40;99.90;;;;;;5046655;28;20263;-74
2021/06/17 08:01:44;;;;;;;1.37;0.90;;;32.50;99.90;;;;;;5053746;28;20508;-76
2021/06/17 08:04:09;;;;;;;1.50;1.23;;;32.70;99.90;;;;;;5053707;28;20858;-74
2021/06/17 08:06:35;;;;;;;2.00;1.37;;;32.50;99.90;;;;;;5052057;28;20280;-74
2021/06/17 08:09:00;;;;;;;2.80;1.50;;;32.70;99.90;;;;;;5052980;28;20182;-74
2021/06/17 08:11:26;;;;;;;1.67;1.57;;;32.80;98.30;;;;;;5054692;28;20195;-74
2021/06/17 08:13:53;;;;;;;1.53;1.43;;;32.60;97.00;;;;;;5054225;28;20178;-73
2021/06/17 08:16:19;;;;;;;1.40;1.30;;;33.00;99.80;;;;;;5054368;28;20942;-74
2021/06/17 08:18:44;;;;;;;1.10;1.00;;;33.30;96.60;;;;;;5054268;28;20428;-74
2021/06/17 08:21:10;;;;;;;1.33;1.23;;;33.60;94.00;;;;;;5055081;28;20836;-74
2021/06/17 08:23:35;;;;;;;1.53;1.43;;;33.70;93.20;;;;;;5054777;28;20202;-73
2021/06/17 08:26:01;;;;;;;2.20;1.80;;;33.70;92.10;;;;;;5055158;28;20209;-75
2021/06/17 08:28:27;;;;;;;1.93;1.60;;;34.10;90.60;;;;;;5054555;28;20179;-73
2021/06/17 08:30:53;;;;;;;1.43;1.30;;;34.00;91.80;;;;;;5054013;28;20186;-74
2021/06/17 08:33:19;;;;;;;1.10;0.97;;;34.40;92.80;;;;;;5053056;28;20455;-75
2021/06/17 08:35:45;;;;;;;1.30;1.20;;;34.70;90.30;;;;;;5052892;28;20402;-74
2021/06/17 08:38:10;;;;;;;2.40;1.83;;;35.10;87.00;;;;;;5052028;28;20853;-74
2021/06/17 08:40:36;;;;;;;2.53;1.80;;;35.10;83.00;;;;;;5053027;28;20174;-74
2021/06/17 08:43:04;;;;;;;1.97;1.87;;;35.40;84.30;;;;;;5054691;28;20179;-73
2021/06/17 08:45:29;;;;;;;1.90;1.77;;;35.90;81.90;;;;;;5056133;28;20178;-75
2021/06/17 08:47:55;;;;;;;1.70;1.30;;;36.00;75.20;;;;;;5054379;28;20437;-74
2021/06/17 08:50:22;;;;;;;2.30;2.13;;;36.10;76.70;;;;;;5055051;28;20635;-74
2021/06/17 08:52:48;;;;;;;1.70;1.60;;;36.40;72.00;;;;;;5055762;28;20421;-73
2021/06/17 08:55:22;;;;;;;1.80;1.70;;;36.60;70.50;;;;;;5051661;28;20503;-73
2021/06/17 08:57:50;;;;;;;2.03;1.40;;;37.00;70.00;;;;;;5054455;28;20435;-74
2021/06/17 09:00:16;;;;;;;2.30;1.33;;;37.50;69.80;;;;;;5049098;28;20954;-76
2021/06/17 09:02:52;;;;;;;13.13;2.73;;;37.70;63.80;;;;;;5047527;28;20472;-73
2021/06/17 09:05:18;;;;;;;1.57;1.40;;;37.70;63.40;;;;;;5046067;28;20175;-73
2021/06/17 09:07:44;;;;;;;2.17;1.63;;;38.20;65.80;;;;;;5049353;28;20487;-75
2021/06/17 09:10:10;;;;;;;2.37;1.80;;;38.30;60.20;;;;;;5046576;28;20249;-73
2021/06/17 09:12:47;;;;;;;1.80;1.70;;;38.60;58.50;;;;;;5047518;28;20195;-74
2021/06/17 09:15:14;;;;;;;2.23;2.13;;;38.60;58.10;;;;;;5047115;28;20410;-73
2021/06/17 09:17:40;;;;;;;1.33;1.23;;;39.00;58.10;;;;;;5048905;28;20433;-73
2021/06/17 09:20:08;;;;;;;4.00;3.60;;;39.30;55.50;;;;;;5049943;28;20409;-74
2021/06/17 09:22:35;;;;;;;3.00;2.80;;;39.20;55.00;;;;;;5051852;28;20418;-74
2021/06/17 09:25:01;;;;;;;1.60;1.50;;;39.20;53.80;;;;;;5050560;28;20769;-74
2021/06/17 09:27:35;;;;;;;1.50;1.40;;;39.70;53.60;;;;;;5052327;28;20444;-74
2021/06/17 09:30:10;;;;;;;1.50;1.40;;;40.10;52.90;;;;;;5050561;28;20942;-74
2021/06/17 09:32:37;;;;;;;1.87;1.67;;;40.30;52.30;;;;;;5044981;28;20480;-74
2021/06/17 09:35:23;;;;;;;1.73;1.63;;;40.40;50.90;;;;;;5045697;28;20468;-76
2021/06/17 09:37:49;;;;;;;1.97;1.87;;;40.50;50.60;;;;;;5047522;28;20462;-72
2021/06/17 09:40:24;;;;;;;12.63;11.33;;;40.40;51.70;;;;;;5046196;28;20472;-72
2021/06/17 09:42:51;;;;;;;1.80;1.70;;;40.40;51.20;;;;;;5045305;28;20948;-72
2021/06/17 09:45:22;;;;;;;2.70;2.50;;;40.80;53.70;;;;;;5043213;28;20840;-72
2021/06/17 09:47:47;;;;;;;2.20;2.10;;;40.40;50.60;;;;;;5045657;28;20638;-73
2021/06/17 09:50:27;;;;;;;1.90;1.80;;;40.60;52.10;;;;;;5045177;28;20511;-72
2021/06/17 09:52:54;;;;;;;1.80;1.70;;;40.80;51.10;;;;;;5046023;28;20708;-72
2021/06/17 09:55:41;;;;;;;1.80;1.70;;;41.00;50.10;;;;;;5044069;28;20399;-73
2021/06/17 09:58:32;;;;;;;1.73;1.63;;;41.00;50.10;;;;;;5047461;28;21379;-72
2021/06/17 10:00:58;;;;;;;1.67;1.57;;;41.00;51.20;;;;;;5064890;28;20396;-72
2021/06/17 10:03:24;;;;;;;1.70;1.60;;;41.10;52.90;;;;;;5051248;28;20929;-72
2021/06/17 10:05:49;;;;;;;1.20;1.10;;;41.20;49.00;;;;;;5045213;28;20405;-72
2021/06/17 10:08:15;;;;;;;1.60;1.50;;;41.40;52.70;;;;;;5038470;28;20203;-72
2021/06/17 10:10:41;;;;;;;1.70;1.60;;;41.30;49.90;;;;;;5043973;28;20550;-72
2021/06/17 10:13:08;;;;;;;1.90;1.80;;;41.50;51.10;;;;;;5046455;28;20475;-72
2021/06/17 10:15:35;;;;;;;1.80;1.70;;;41.60;51.10;;;;;;5047092;28;20257;-72
2021/06/17 10:18:01;;;;;;;1.50;1.40;;;41.80;52.30;;;;;;5039896;28;20400;-72
2021/06/17 10:20:27;;;;;;;1.70;1.60;;;41.60;50.00;;;;;;5043267;28;20395;-73
2021/06/17 10:22:55;;;;;;;2.10;2.00;;;41.90;50.60;;;;;;5041898;28;20772;-72
2021/06/17 10:25:28;;;;;;;1.63;1.53;;;42.00;50.10;;;;;;5044627;28;20830;-72
2021/06/17 10:27:57;;;;;;;1.80;1.70;;;42.30;52.10;;;;;;5044493;28;20946;-72
2021/06/17 10:30:39;;;;;;;1.70;1.60;;;42.40;51.20;;;;;;5077146;28;20414;-73
2021/06/17 10:33:04;;;;;;;2.97;2.40;;;42.40;49.50;;;;;;5043402;28;20421;-73
2021/06/17 10:35:30;;;;;;;1.90;1.80;;;42.60;49.80;;;;;;5044711;28;20770;-73
2021/06/17 10:38:01;;;;;;;1.57;1.47;;;42.30;49.20;;;;;;5047749;28;20285;-72
2021/06/17 10:40:29;;;;;;;2.00;1.90;;;42.30;48.70;;;;;;5043594;28;20591;-73
2021/06/17 10:42:57;;;;;;;2.23;2.03;;;42.60;48.00;;;;;;5045659;28;20388;-76
2021/06/17 10:45:41;;;;;;;1.93;1.83;;;42.10;46.20;;;;;;5043738;28;20410;-75
2021/06/17 10:48:16;;;;;;;1.30;1.20;;;42.40;48.10;;;;;;5041946;28;20844;-76
2021/06/17 10:50:52;;;;;;;2.50;2.00;;;41.60;46.70;;;;;;5045611;28;20488;-78
2021/06/17 10:53:43;;;;;;;1.93;1.83;;;41.50;46.60;;;;;;5051262;28;20989;-77
2021/06/17 10:56:15;;;;;;;2.17;2.00;;;41.40;48.30;;;;;;5048598;28;20421;-77
2021/06/17 10:58:41;;;;;;;1.80;1.70;;;41.40;48.20;;;;;;5050377;28;20418;-77
2021/06/17 11:01:38;;;;;;;2.03;1.90;;;41.40;50.00;;;;;;5048450;28;20417;-76
2021/06/17 11:04:17;;;;;;;2.00;1.80;;;41.70;50.00;;;;;;5047321;28;20245;-76
2021/06/17 11:07:05;;;;;;;1.70;1.60;;;41.20;48.10;;;;;;5043368;28;20437;-76
2021/06/17 11:09:34;;;;;;;2.57;2.00;;;41.00;48.00;;;;;;5045351;28;20410;-76
2021/06/17 11:12:24;;;;;;;2.63;2.43;;;41.20;50.90;;;;;;5035132;28;20997;-76
2021/06/17 11:14:54;;;;;;;1.70;1.60;;;41.60;49.20;;;;;;5070394;28;20410;-76
2021/06/17 11:17:26;;;;;;;1.87;1.70;;;41.50;48.60;;;;;;5055742;28;20910;-78
2021/06/17 11:20:00;;;;;;;3.00;2.70;;;41.30;46.90;;;;;;5057909;28;20436;-78
2021/06/17 11:22:40;;;;;;;1.80;1.70;;;41.00;47.50;;;;;;5058171;28;20417;-76
2021/06/17 11:25:27;;;;;;;3.93;3.03;;;41.10;49.00;;;;;;5038187;28;20402;-76
2021/06/17 11:28:02;;;;;;;2.40;2.20;;;41.20;50.80;;;;;;5038938;28;20480;-74
2021/06/17 11:30:37;;;;;;;1.83;1.73;;;41.40;50.20;;;;;;5036183;28;20859;-74
2021/06/17 11:33:15;;;;;;;1.70;1.60;;;41.30;49.30;;;;;;5045133;28;20752;-74
2021/06/17 11:35:49;;;;;;;1.67;1.53;;;41.40;48.10;;;;;;5056439;28;20426;-76
2021/06/17 11:38:32;;;;;;;1.73;1.63;;;41.00;48.10;;;;;;5056751;28;20425;-76
2021/06/17 11:41:00;;;;;;;2.17;2.07;;;41.10;49.80;;;;;;5056657;28;20766;-75
2021/06/17 11:43:27;;;;;;;2.80;2.20;;;41.30;48.30;;;;;;5055758;28;20417;-77
2021/06/17 11:45:54;;;;;;;2.70;2.50;;;41.40;47.30;;;;;;5055294;28;20432;-75
2021/06/17 11:48:21;;;;;;;2.80;1.87;;;41.40;47.20;;;;;;5055950;28;20410;-75
2021/06/17 11:50:49;;;;;;;1.67;1.57;;;41.60;47.30;;;;;;5054137;28;20985;-75
2021/06/17 11:53:26;;;;;;;2.30;2.10;;;41.80;47.80;;;;;;5040976;28;20471;-76
2021/06/17 11:55:54;;;;;;;1.90;1.80;;;41.60;48.80;;;;;;5055941;28;20765;-78
2021/06/17 11:58:25;;;;;;;1.70;1.60;;;41.40;49.20;;;;;;5055914;28;20495;-76
2021/06/17 12:00:51;;;;;;;2.13;2.03;;;41.60;48.30;;;;;;5054182;28;20452;-75
2021/06/17 12:03:24;;;;;;;1.50;1.33;;;41.50;48.10;;;;;;5054958;28;20799;-76
2021/06/17 12:05:50;;;;;;;2.20;1.93;;;41.30;47.30;;;;;;5056103;28;20380;-77
2021/06/17 12:08:16;;;;;;;2.50;1.80;;;41.30;48.40;;;;;;5055188;28;20947;-76
2021/06/17 12:10:43;;;;;;;1.97;1.87;;;40.80;47.10;;;;;;5088064;28;20555;-75
2021/06/17 12:13:10;;;;;;;1.70;1.60;;;41.00;48.90;;;;;;5088225;28;20418;-75
2021/06/17 12:15:42;;;;;;;2.07;1.97;;;40.80;46.70;;;;;;5054602;28;20489;-77
2021/06/17 12:18:13;;;;;;;2.37;2.17;;;41.20;47.50;;;;;;5088580;28;20430;-74
2021/06/17 12:20:44;;;;;;;2.33;2.13;;;41.30;47.60;;;;;;5055232;28;20384;-76
2021/06/17 12:23:11;;;;;;;2.30;2.10;;;41.40;47.60;;;;;;5054585;28;20453;-75
2021/06/17 12:25:40;;;;;;;1.70;1.60;;;41.50;47.60;;;;;;5049209;28;20833;-76
2021/06/17 12:28:07;;;;;;;2.07;1.97;;;41.40;46.00;;;;;;5057024;28;20414;-76
2021/06/17 12:30:38;;;;;;;2.17;2.07;;;41.90;46.20;;;;;;5056647;28;20429;-76
2021/06/17 12:33:14;;;;;;;1.60;1.50;;;42.40;48.10;;;;;;5056076;28;20409;-76
2021/06/17 12:35:41;;;;;;;2.70;2.53;;;42.70;47.70;;;;;;5053921;28;20383;-76
2021/06/17 12:38:07;;;;;;;2.23;2.10;;;43.00;48.00;;;;;;5055665;28;20433;-77
2021/06/17 12:40:42;;;;;;;2.63;2.43;;;42.90;45.50;;;;;;5055487;28;20441;-76
2021/06/17 12:43:19;;;;;;;1.83;1.73;;;42.90;47.10;;;;;;5055281;28;20510;-75
2021/06/17 12:46:06;;;;;;;1.47;1.37;;;42.30;48.00;;;;;;5054073;28;20504;-76
2021/06/17 12:48:56;;;;;;;1.93;1.80;;;42.00;49.30;;;;;;5051610;28;20479;-76
2021/06/17 12:54:29;;;;;;;3.40;3.00;;;42.20;50.10;;;;;;5055445;28;20416;-76
2021/06/17 12:57:23;;;;;;;2.43;2.23;;;41.80;46.60;;;;;;5054514;28;20422;-75
2021/06/17 12:59:54;;;;;;;1.90;1.80;;;41.50;48.10;;;;;;5054311;28;20410;-76
2021/06/17 13:02:22;;;;;;;2.23;2.10;;;41.10;47.60;;;;;;5055111;28;20435;-76